»·PEaware :: DIHNF KPDX-KHQM

DIHNF :: KPDX-KHQM

FLIGHT INFORMATION

Flight Status: Arrived
Operator: Unknown
More flights by this operator :: More flights under this callsign
Pilot: Klaus A. (15485)
Aircraft: Unknown
(DA62)
More flights by this aircraft type
Origin: KPDX Portland Intl
United States
Destination: KHQM Bowerman
United States
More flights between these airports :: More routes between these airports
Route: +KTDO
File this flight plan on PilotEdge
Remarks: / G Custom weather
Altitude:
(Current/Filed)
4,500ft
Speed:
(Current/Filed)
150kts
Departed: 07-Jul-18 10:45 AM
Arrived: 07-Jul-18 11:32 AM
Distance/Time
Traveled:
100nm/0:47
Distance/Time
To Go:
Arrived

Flight Plot

Page will automatically refresh every two minutes.

Flight plan parsing failed; only flown route is shown


Map Options




Map Legend


Flown Route
Filed Route
Departure Airport
Arrival Airport
Navaid (VOR, NDB)
Fix

Horizontal Profiles

Position Reports

Time Latitude Longitude Heading Altitude Ground
Speed
07-Jul-18 10:17 45.587609 -122.584015 210 27ft 0kts
07-Jul-18 10:18 45.587609 -122.584015 210 27ft 0kts
07-Jul-18 10:19 45.587609 -122.584015 210 27ft 0kts
07-Jul-18 10:20 45.587609 -122.584015 210 27ft 0kts
07-Jul-18 10:21 45.587609 -122.584015 210 27ft 0kts
07-Jul-18 10:22 45.587609 -122.584015 210 27ft 0kts
07-Jul-18 10:23 45.587609 -122.584015 210 27ft 0kts
07-Jul-18 10:24 45.587609 -122.584015 210 27ft 0kts
07-Jul-18 10:25 45.587609 -122.584015 210 27ft 0kts
07-Jul-18 10:26 45.587609 -122.584015 210 27ft 0kts
07-Jul-18 10:27 45.587609 -122.584015 209 27ft 0kts
07-Jul-18 10:28 45.587609 -122.584015 209 27ft 0kts
07-Jul-18 10:29 45.587609 -122.584015 210 27ft 0kts
07-Jul-18 10:30 45.587609 -122.584015 209 27ft 0kts
07-Jul-18 10:31 45.587609 -122.584015 210 27ft 0kts
07-Jul-18 10:33 45.587609 -122.584015 210 27ft 0kts
07-Jul-18 10:34 45.587609 -122.584015 209 27ft 0kts
07-Jul-18 10:35 45.587556 -122.584083 233 27ft 3kts
07-Jul-18 10:36 45.588047 -122.582704 37 27ft 9kts
07-Jul-18 10:37 45.586769 -122.578229 118 27ft 15kts
07-Jul-18 10:38 45.584205 -122.571643 118 27ft 21kts
07-Jul-18 10:39 45.582633 -122.567887 109 27ft 0kts
07-Jul-18 10:40 45.582633 -122.567887 110 27ft 0kts
07-Jul-18 10:41 45.582633 -122.567887 109 27ft 0kts
07-Jul-18 10:42 45.582633 -122.567887 109 27ft 0kts
07-Jul-18 10:43 45.582633 -122.567887 109 27ft 0kts
07-Jul-18 10:44 45.582621 -122.567716 81 27ft 5kts
07-Jul-18 10:45 45.582791 -122.567280 46 27ft 2kts
07-Jul-18 10:46 45.587343 -122.576527 296 134ft 82kts
07-Jul-18 10:47 45.603670 -122.601998 46 1005ft 106kts
07-Jul-18 10:48 45.625184 -122.580116 345 2173ft 102kts
07-Jul-18 10:49 45.647733 -122.607385 317 3330ft 101kts
07-Jul-18 10:50 45.677647 -122.615084 339 4248ft 115kts
07-Jul-18 10:51 45.713803 -122.626350 344 4514ft 154kts
07-Jul-18 10:52 45.756398 -122.636322 344 4300ft 149kts
07-Jul-18 10:53 45.797022 -122.645861 344 4034ft 149kts
07-Jul-18 10:54 45.835830 -122.654958 345 4000ft 148kts
07-Jul-18 10:55 45.876529 -122.664586 349 3959ft 149kts
07-Jul-18 10:56 45.917421 -122.674080 349 3896ft 147kts
07-Jul-18 10:57 45.957549 -122.683414 345 3904ft 147kts
07-Jul-18 10:58 45.998487 -122.693026 345 3909ft 151kts
07-Jul-18 10:59 46.040545 -122.702755 344 3909ft 155kts
07-Jul-18 11:00 46.083411 -122.712932 344 3910ft 158kts
07-Jul-18 11:01 46.122186 -122.722176 344 3909ft 162kts
07-Jul-18 11:02 46.167196 -122.732897 346 3900ft 165kts
07-Jul-18 11:03 46.212662 -122.743656 347 3899ft 167kts
07-Jul-18 11:04 46.258633 -122.754540 347 3899ft 167kts
07-Jul-18 11:05 46.304643 -122.765475 347 3899ft 167kts
07-Jul-18 11:06 46.350453 -122.776397 347 3899ft 167kts
07-Jul-18 11:07 46.396284 -122.787349 347 3899ft 167kts
07-Jul-18 11:08 46.442192 -122.798336 347 3900ft 167kts
07-Jul-18 11:09 46.482639 -122.821913 301 3912ft 159kts
07-Jul-18 11:10 46.507430 -122.875324 299 3909ft 160kts
07-Jul-18 11:11 46.531941 -122.930111 299 3909ft 163kts
07-Jul-18 11:12 46.556481 -122.985656 302 3904ft 161kts
07-Jul-18 11:13 46.579970 -123.038399 302 3898ft 152kts
07-Jul-18 11:14 46.602600 -123.089510 302 3899ft 150kts
07-Jul-18 11:15 46.625142 -123.140625 301 3899ft 150kts
07-Jul-18 11:16 46.647682 -123.191818 301 3899ft 150kts
07-Jul-18 11:17 46.670121 -123.242864 301 3899ft 150kts
07-Jul-18 11:18 46.692519 -123.293922 301 3899ft 150kts
07-Jul-18 11:19 46.714944 -123.345040 302 3899ft 150kts
07-Jul-18 11:20 46.737517 -123.396520 302 3633ft 152kts
07-Jul-18 11:21 46.760289 -123.448708 302 3126ft 153kts
07-Jul-18 11:22 46.782063 -123.498654 302 2996ft 138kts
07-Jul-18 11:23 46.799073 -123.537788 302 2931ft 135kts
07-Jul-18 11:24 46.820738 -123.587717 302 3002ft 154kts
07-Jul-18 11:25 46.844174 -123.641790 302 3000ft 159kts
07-Jul-18 11:26 46.867814 -123.696450 301 2999ft 160kts
07-Jul-18 11:27 46.891628 -123.751623 301 2999ft 160kts
07-Jul-18 11:28 46.913819 -123.805504 298 2395ft 149kts
07-Jul-18 11:29 46.944312 -123.838044 345 1995ft 134kts
07-Jul-18 11:30 46.976793 -123.850231 343 1498ft 113kts
07-Jul-18 11:31 46.980948 -123.881570 222 800ft 97kts
07-Jul-18 11:32 46.973695 -123.915014 262 253ft 88kts
07-Jul-18 11:33 46.971280 -123.939931 350 22ft 11kts
07-Jul-18 11:34 46.972241 -123.936531 80 22ft 22kts
07-Jul-18 11:35 46.973512 -123.930447 107 22ft 7kts
07-Jul-18 11:36 46.973426 -123.930322 169 22ft 0kts
07-Jul-18 11:37 46.973426 -123.930322 169 22ft 0kts

Navigation Log

Ident Type
Flight plan parsing failed, navigation log unavailable